createdAt,value
2023-05-15T00:00:00.807Z,11.80
2023-05-15T00:02:28.040Z,11.60
2023-05-15T00:04:55.234Z,11.30
2023-05-15T00:07:22.387Z,11.10
2023-05-15T00:09:49.476Z,11.10
2023-05-15T00:12:16.468Z,10.90
2023-05-15T00:14:43.646Z,10.90
2023-05-15T00:17:11.101Z,11.00
2023-05-15T00:19:38.323Z,11.00
2023-05-15T00:22:05.594Z,11.00
2023-05-15T00:24:32.703Z,11.10
2023-05-15T00:27:01.211Z,11.10
2023-05-15T00:29:28.261Z,11.20
2023-05-15T00:31:55.327Z,11.10
2023-05-15T00:34:23.167Z,10.90
2023-05-15T00:36:50.183Z,10.80
2023-05-15T00:39:17.484Z,10.80
2023-05-15T00:41:46.433Z,10.70
2023-05-15T00:44:15.554Z,10.70
2023-05-15T00:46:45.568Z,10.60
2023-05-15T00:49:14.373Z,10.60
2023-05-15T00:51:42.706Z,10.60
2023-05-15T00:54:10.716Z,10.60
2023-05-15T00:56:38.087Z,10.60
2023-05-15T00:59:06.543Z,10.60
2023-05-15T01:01:34.925Z,10.60
2023-05-15T01:04:02.983Z,10.50
2023-05-15T01:06:32.123Z,10.50
2023-05-15T01:09:04.483Z,10.50
2023-05-15T01:11:36.563Z,10.50
2023-05-15T01:14:08.555Z,10.50
2023-05-15T01:16:36.592Z,10.50
2023-05-15T01:19:05.010Z,10.40
2023-05-15T01:22:13.595Z,10.50
2023-05-15T01:25:11.412Z,10.50
2023-05-15T01:27:49.026Z,10.50
2023-05-15T01:30:23.778Z,10.50
2023-05-15T01:33:08.754Z,10.40
2023-05-15T01:35:52.364Z,10.30
2023-05-15T01:38:31.399Z,10.30
2023-05-15T01:41:05.297Z,10.20
2023-05-15T01:43:35.514Z,10.10
2023-05-15T01:46:03.583Z,10.00
2023-05-15T01:48:33.681Z,10.00
2023-05-15T01:51:04.913Z,10.00
2023-05-15T01:53:34.294Z,10.10
2023-05-15T01:56:02.341Z,10.20
2023-05-15T01:58:30.248Z,10.30
2023-05-15T02:00:57.806Z,10.30
2023-05-15T02:03:25.699Z,10.40
2023-05-15T02:05:54.804Z,10.40
2023-05-15T02:08:23.221Z,10.40
2023-05-15T02:10:51.192Z,10.40
2023-05-15T02:13:19.572Z,10.40
2023-05-15T02:15:46.934Z,10.20
2023-05-15T02:18:14.244Z,10.00
2023-05-15T02:20:41.313Z,9.90
2023-05-15T02:23:08.366Z,9.80
2023-05-15T02:25:45.605Z,9.80
2023-05-15T02:28:23.069Z,10.00
2023-05-15T02:31:00.624Z,10.10
2023-05-15T02:33:42.685Z,10.10
2023-05-15T02:36:14.128Z,10.20
2023-05-15T02:38:53.719Z,10.20
2023-05-15T02:41:23.291Z,10.10
2023-05-15T02:43:52.510Z,9.90
2023-05-15T02:46:21.686Z,9.70
2023-05-15T02:48:49.143Z,9.70
2023-05-15T02:51:16.684Z,9.70
2023-05-15T02:53:44.465Z,9.70
2023-05-15T02:56:11.555Z,9.90
2023-05-15T02:58:39.551Z,10.10
2023-05-15T03:01:07.037Z,10.20
2023-05-15T03:03:34.364Z,10.30
2023-05-15T03:06:01.685Z,10.40
2023-05-15T03:08:29.404Z,10.50
2023-05-15T03:10:56.476Z,10.60
2023-05-15T03:13:23.531Z,10.70
2023-05-15T03:15:50.704Z,10.80
2023-05-15T03:18:19.136Z,10.90
2023-05-15T03:20:48.726Z,10.90
2023-05-15T03:23:15.867Z,11.00
2023-05-15T03:25:42.964Z,11.00
2023-05-15T03:28:10.123Z,11.10
2023-05-15T03:30:37.227Z,11.10
2023-05-15T03:33:04.376Z,11.10
2023-05-15T03:35:32.612Z,11.10
2023-05-15T03:37:59.724Z,11.10
2023-05-15T03:40:26.917Z,11.10
2023-05-15T03:42:53.963Z,11.20
2023-05-15T03:45:21.547Z,11.20
2023-05-15T03:47:48.732Z,11.20
2023-05-15T03:50:16.358Z,11.20
2023-05-15T03:52:43.435Z,11.20
2023-05-15T03:55:10.797Z,11.20
2023-05-15T03:57:37.983Z,11.20
2023-05-15T04:00:10.371Z,11.20
2023-05-15T04:02:38.296Z,11.20
2023-05-15T04:05:06.071Z,11.20
2023-05-15T04:07:37.376Z,11.20
2023-05-15T04:10:04.878Z,11.20
2023-05-15T04:12:34.222Z,11.20
2023-05-15T04:15:36.974Z,11.20
2023-05-15T04:18:04.193Z,11.10
2023-05-15T04:20:31.429Z,11.10
2023-05-15T04:22:58.506Z,11.10
2023-05-15T04:25:26.622Z,11.10
2023-05-15T04:27:53.966Z,11.10
2023-05-15T04:30:21.674Z,11.10
2023-05-15T04:32:49.316Z,11.10
2023-05-15T04:35:16.473Z,11.10
2023-05-15T04:37:45.861Z,11.10
2023-05-15T04:40:15.129Z,11.00
2023-05-15T04:42:42.451Z,11.00
2023-05-15T04:45:10.136Z,11.00
2023-05-15T04:47:37.524Z,11.10
2023-05-15T04:50:04.997Z,11.10
2023-05-15T04:52:32.485Z,11.10
2023-05-15T04:54:59.655Z,11.10
2023-05-15T04:57:26.819Z,11.10
2023-05-15T04:59:54.028Z,11.10
2023-05-15T05:02:24.692Z,11.10
2023-05-15T05:04:51.880Z,11.10
2023-05-15T05:07:19.238Z,11.10
2023-05-15T05:09:46.320Z,11.10
2023-05-15T05:12:13.689Z,11.10
2023-05-15T05:14:42.461Z,11.10
2023-05-15T05:17:09.669Z,11.20
2023-05-15T05:19:36.829Z,11.20
2023-05-15T05:22:07.893Z,11.20
2023-05-15T05:24:38.304Z,11.20
2023-05-15T05:27:06.643Z,11.20
2023-05-15T05:29:34.236Z,11.20
2023-05-15T05:32:01.450Z,11.20
2023-05-15T05:34:28.803Z,11.20
2023-05-15T05:36:55.872Z,11.30
2023-05-15T05:39:22.863Z,11.30
2023-05-15T05:41:49.941Z,11.30
2023-05-15T05:44:17.099Z,11.30
2023-05-15T05:46:45.549Z,11.30
2023-05-15T05:49:12.731Z,11.30
2023-05-15T05:51:39.990Z,11.30
2023-05-15T05:54:07.026Z,11.30
2023-05-15T05:56:34.146Z,11.20
2023-05-15T05:59:02.303Z,11.20
2023-05-15T06:01:29.626Z,11.20
2023-05-15T06:03:56.876Z,11.20
2023-05-15T06:06:24.073Z,11.20
2023-05-15T06:08:51.108Z,11.20
2023-05-15T06:11:18.327Z,11.20
2023-05-15T06:13:45.456Z,11.20
2023-05-15T06:16:12.524Z,11.20
2023-05-15T06:18:39.691Z,11.20
2023-05-15T06:21:06.848Z,11.20
2023-05-15T06:23:33.935Z,11.30
2023-05-15T06:26:01.804Z,11.30
2023-05-15T06:28:28.900Z,11.30
2023-05-15T06:30:58.848Z,11.40
2023-05-15T06:33:26.017Z,11.40
2023-05-15T06:35:53.223Z,11.50
2023-05-15T06:38:20.345Z,11.40
2023-05-15T06:40:47.478Z,11.40
2023-05-15T06:43:14.520Z,11.50
2023-05-15T06:45:41.569Z,11.50
2023-05-15T06:48:08.827Z,11.50
2023-05-15T06:50:36.144Z,11.50
2023-05-15T06:53:03.800Z,11.50
2023-05-15T06:55:30.846Z,11.60
2023-05-15T06:57:57.951Z,11.60
2023-05-15T07:00:24.976Z,11.60
2023-05-15T07:02:52.103Z,11.60
2023-05-15T07:05:19.157Z,11.60
2023-05-15T07:07:46.189Z,11.60
2023-05-15T07:10:13.382Z,11.70
2023-05-15T07:12:40.460Z,11.80
2023-05-15T07:15:08.035Z,11.90
2023-05-15T07:17:35.158Z,11.90
2023-05-15T07:20:02.354Z,11.80
2023-05-15T07:22:29.416Z,11.90
2023-05-15T07:24:56.516Z,12.00
2023-05-15T07:27:23.605Z,12.00
2023-05-15T07:29:50.726Z,12.10
2023-05-15T07:32:17.813Z,12.00
2023-05-15T07:34:44.958Z,12.10
2023-05-15T07:37:12.274Z,12.00
2023-05-15T07:39:39.369Z,12.10
2023-05-15T07:42:06.837Z,12.10
2023-05-15T07:44:33.831Z,12.00
2023-05-15T07:47:00.849Z,11.90
2023-05-15T07:49:27.880Z,11.90
2023-05-15T07:51:54.979Z,11.80
2023-05-15T07:54:22.182Z,11.70
2023-05-15T07:56:49.382Z,11.70
2023-05-15T07:59:16.587Z,11.70
2023-05-15T08:01:43.608Z,11.60
2023-05-15T08:04:10.779Z,11.60
2023-05-15T08:06:42.789Z,11.60
2023-05-15T08:09:11.538Z,11.50
2023-05-15T08:11:38.637Z,11.50
2023-05-15T08:14:05.704Z,11.50
2023-05-15T08:16:33.077Z,11.50
2023-05-15T08:19:04.936Z,11.60
2023-05-15T08:21:32.445Z,11.50
2023-05-15T08:24:00.769Z,11.60
2023-05-15T08:26:27.829Z,11.70
2023-05-15T08:28:54.908Z,11.80
2023-05-15T08:31:24.657Z,11.90
2023-05-15T08:33:51.817Z,12.00
2023-05-15T08:36:19.944Z,12.00
2023-05-15T08:38:47.133Z,11.80
2023-05-15T08:41:40.986Z,11.90
2023-05-15T08:44:11.208Z,11.90
2023-05-15T08:46:39.188Z,11.90
2023-05-15T08:49:16.245Z,12.10
2023-05-15T08:51:43.718Z,12.30
2023-05-15T08:54:11.799Z,12.30
2023-05-15T08:56:39.132Z,12.20
2023-05-15T08:59:06.442Z,12.30
2023-05-15T09:01:34.406Z,12.30
2023-05-15T09:04:01.552Z,12.40
2023-05-15T09:06:28.818Z,12.50
2023-05-15T09:08:57.126Z,12.40
2023-05-15T09:11:27.506Z,12.30
2023-05-15T09:13:58.820Z,12.30
2023-05-15T09:16:26.170Z,12.30
2023-05-15T09:18:54.063Z,12.20
2023-05-15T09:21:29.819Z,12.20
2023-05-15T09:24:18.629Z,12.20
2023-05-15T09:26:46.999Z,12.20
2023-05-15T09:29:18.915Z,12.20
2023-05-15T09:31:49.836Z,12.20
2023-05-15T09:34:17.125Z,12.30
2023-05-15T09:36:47.286Z,12.30
2023-05-15T09:39:14.390Z,12.60
2023-05-15T09:41:44.912Z,12.70
2023-05-15T09:44:27.057Z,12.90
2023-05-15T09:46:54.361Z,13.20
2023-05-15T09:49:21.485Z,13.40
2023-05-15T09:51:50.617Z,13.60
2023-05-15T09:54:19.144Z,13.70
2023-05-15T09:56:47.313Z,14.00
2023-05-15T09:59:17.600Z,14.10
2023-05-15T10:01:46.229Z,13.90
2023-05-15T10:04:14.559Z,13.80
2023-05-15T10:06:48.166Z,13.60
2023-05-15T10:09:15.938Z,13.60
2023-05-15T10:11:45.071Z,13.50
2023-05-15T10:14:17.851Z,13.60
2023-05-15T10:16:45.888Z,13.70
2023-05-15T10:19:13.612Z,13.90
2023-05-15T10:21:42.109Z,14.10
2023-05-15T10:24:10.294Z,14.20
2023-05-15T10:26:38.239Z,14.30
2023-05-15T10:29:13.587Z,14.50
2023-05-15T10:31:41.726Z,15.00
2023-05-15T10:34:10.150Z,15.40
2023-05-15T10:36:38.560Z,15.70
2023-05-15T10:39:07.563Z,15.80
2023-05-15T10:41:40.276Z,16.30
2023-05-15T10:44:07.427Z,16.30
2023-05-15T10:46:36.521Z,16.30
2023-05-15T10:49:04.499Z,16.40
2023-05-15T10:51:36.993Z,16.50
2023-05-15T10:54:04.358Z,16.70
2023-05-15T10:56:33.066Z,16.80
2023-05-15T10:59:08.220Z,16.90
2023-05-15T11:01:37.923Z,16.80
2023-05-15T11:04:07.930Z,17.00
2023-05-15T11:06:35.651Z,17.10
2023-05-15T11:09:35.369Z,17.30
2023-05-15T11:12:04.496Z,17.30
2023-05-15T11:14:36.292Z,17.50
2023-05-15T11:17:08.400Z,17.90
2023-05-15T11:19:37.987Z,18.10
2023-05-15T11:22:21.299Z,18.30
2023-05-15T11:24:58.966Z,18.50
2023-05-15T11:27:30.405Z,18.80
2023-05-15T11:30:04.159Z,19.20
2023-05-15T11:32:50.928Z,19.80
2023-05-15T11:35:32.790Z,19.50
2023-05-15T11:38:05.877Z,19.10
2023-05-15T11:40:44.145Z,19.20
2023-05-15T11:43:20.100Z,19.20
2023-05-15T11:45:58.969Z,19.60
2023-05-15T11:48:32.266Z,19.60
2023-05-15T11:51:02.011Z,19.40
2023-05-15T11:53:33.550Z,19.70
2023-05-15T11:56:01.021Z,20.40
2023-05-15T11:58:28.169Z,20.70
2023-05-15T12:00:55.560Z,20.90
2023-05-15T12:03:28.046Z,20.70
2023-05-15T12:05:59.630Z,20.80
2023-05-15T12:08:35.021Z,20.70
2023-05-15T12:11:03.511Z,21.00
2023-05-15T12:13:31.748Z,21.10
2023-05-15T12:15:59.652Z,21.20
2023-05-15T12:18:26.838Z,21.50
2023-05-15T12:20:54.935Z,21.30
2023-05-15T12:23:23.906Z,21.60
2023-05-15T12:25:55.242Z,21.50
2023-05-15T12:28:23.019Z,21.50
2023-05-15T12:30:51.844Z,21.00
2023-05-15T12:33:19.254Z,21.40
2023-05-15T12:35:53.852Z,21.60
2023-05-15T12:38:22.739Z,21.60
2023-05-15T12:40:53.873Z,21.80
2023-05-15T12:43:24.860Z,22.30
2023-05-15T12:45:55.857Z,22.50
2023-05-15T12:48:23.279Z,22.50
2023-05-15T12:50:50.453Z,22.30
2023-05-15T12:53:18.145Z,21.90
2023-05-15T12:55:47.167Z,22.10
2023-05-15T12:58:18.737Z,22.80
2023-05-15T13:00:46.975Z,22.30
2023-05-15T13:03:14.941Z,22.70
2023-05-15T13:05:45.845Z,21.90
2023-05-15T13:08:17.813Z,21.20
2023-05-15T13:10:46.237Z,21.00
2023-05-15T13:13:13.730Z,21.80
2023-05-15T13:15:44.168Z,21.80
2023-05-15T13:18:16.303Z,21.20
2023-05-15T13:20:47.158Z,21.60
2023-05-15T13:23:17.096Z,21.70
2023-05-15T13:25:44.817Z,21.90
2023-05-15T13:28:12.802Z,21.30
2023-05-15T13:30:42.041Z,20.80
2023-05-15T13:33:10.902Z,20.70
2023-05-15T13:35:38.612Z,20.80
2023-05-15T13:38:05.674Z,20.90
2023-05-15T13:40:33.572Z,20.90
2023-05-15T13:43:00.641Z,21.20
2023-05-15T13:45:27.741Z,21.20
2023-05-15T13:47:55.821Z,21.10
2023-05-15T13:50:23.003Z,21.30
2023-05-15T13:52:50.073Z,21.60
2023-05-15T13:55:17.135Z,21.50
2023-05-15T13:57:44.841Z,21.20
2023-05-15T14:00:13.780Z,21.40
2023-05-15T14:02:43.455Z,21.90
2023-05-15T14:05:14.684Z,22.20
2023-05-15T14:07:42.618Z,22.40
2023-05-15T14:10:10.643Z,23.00
2023-05-15T14:12:38.418Z,23.30
2023-05-15T14:15:06.205Z,23.30
2023-05-15T14:17:33.350Z,22.60
2023-05-15T14:20:00.455Z,22.50
2023-05-15T14:22:27.683Z,22.50
2023-05-15T14:24:54.837Z,22.80
2023-05-15T14:27:21.870Z,22.20
2023-05-15T14:29:49.732Z,22.20
2023-05-15T14:32:17.107Z,22.10
2023-05-15T14:34:44.761Z,22.00
2023-05-15T14:37:12.048Z,22.40
2023-05-15T14:39:39.434Z,22.90
2023-05-15T14:42:07.067Z,22.70
2023-05-15T14:44:34.931Z,22.60
2023-05-15T14:47:10.077Z,22.80
2023-05-15T14:49:37.956Z,22.70
2023-05-15T14:52:07.649Z,22.10
2023-05-15T14:54:35.862Z,21.90
2023-05-15T14:57:03.905Z,21.20
2023-05-15T14:59:31.899Z,21.20
2023-05-15T15:01:59.069Z,21.30
2023-05-15T15:04:30.663Z,21.40
2023-05-15T15:06:57.676Z,21.10
2023-05-15T15:09:28.350Z,21.60
2023-05-15T15:11:56.131Z,22.00
2023-05-15T15:14:23.226Z,22.60
2023-05-15T15:16:50.456Z,22.50
2023-05-15T15:19:19.948Z,21.90
2023-05-15T15:21:47.705Z,21.80
2023-05-15T15:24:15.099Z,21.50
2023-05-15T15:26:42.247Z,21.80
2023-05-15T15:29:09.269Z,21.30
2023-05-15T15:31:36.433Z,21.00
2023-05-15T15:34:05.811Z,21.10
2023-05-15T15:36:33.191Z,21.50
2023-05-15T15:39:00.303Z,21.50
2023-05-15T15:41:31.726Z,21.50
2023-05-15T15:43:58.782Z,21.50
2023-05-15T15:46:25.920Z,21.30
2023-05-15T15:48:53.134Z,21.30
2023-05-15T15:51:21.475Z,21.40
2023-05-15T15:53:48.512Z,21.30
2023-05-15T15:56:15.659Z,21.10
2023-05-15T15:58:42.671Z,21.00
2023-05-15T16:01:09.896Z,21.30
2023-05-15T16:03:37.012Z,21.20
2023-05-15T16:06:04.334Z,21.00
2023-05-15T16:08:38.487Z,20.70
2023-05-15T16:11:05.833Z,20.10
2023-05-15T16:13:32.907Z,19.80
2023-05-15T16:15:59.940Z,19.90
2023-05-15T16:18:27.106Z,19.80
2023-05-15T16:20:54.289Z,19.90
2023-05-15T16:23:21.427Z,19.80
2023-05-15T16:25:48.655Z,19.50
2023-05-15T16:28:15.727Z,19.20
2023-05-15T16:30:48.888Z,18.80
2023-05-15T16:33:17.965Z,18.40
2023-05-15T16:35:45.918Z,18.40
2023-05-15T16:38:13.573Z,18.00
2023-05-15T16:40:40.677Z,17.60
2023-05-15T16:43:07.783Z,17.40
2023-05-15T16:45:34.844Z,17.10
2023-05-15T16:48:02.311Z,17.00
2023-05-15T16:50:36.267Z,16.90
2023-05-15T16:53:05.102Z,16.90
2023-05-15T16:55:32.714Z,16.80
2023-05-15T16:57:59.770Z,16.80
2023-05-15T17:00:27.305Z,16.80
2023-05-15T17:02:55.029Z,16.70
2023-05-15T17:05:22.343Z,16.70
2023-05-15T17:07:49.405Z,16.50
2023-05-15T17:10:16.752Z,16.30
2023-05-15T17:12:44.016Z,16.30
2023-05-15T17:15:12.065Z,16.20
2023-05-15T17:17:39.138Z,16.20
2023-05-15T17:20:06.770Z,16.10
2023-05-15T17:22:33.936Z,16.10
2023-05-15T17:25:02.666Z,15.90
2023-05-15T17:27:29.901Z,15.80
2023-05-15T17:29:57.304Z,15.60
2023-05-15T17:32:25.034Z,15.50
2023-05-15T17:34:52.188Z,15.40
2023-05-15T17:37:19.417Z,15.40
2023-05-15T17:39:46.500Z,15.40
2023-05-15T17:42:13.665Z,15.40
2023-05-15T17:44:40.837Z,15.40
2023-05-15T17:47:09.886Z,15.40
2023-05-15T17:49:38.348Z,15.40
2023-05-15T17:52:06.059Z,15.30
2023-05-15T17:54:33.217Z,15.30
2023-05-15T17:57:00.410Z,15.20
2023-05-15T17:59:27.744Z,15.10
2023-05-15T18:01:55.316Z,15.10
2023-05-15T18:04:23.035Z,15.00
2023-05-15T18:06:50.162Z,15.00
2023-05-15T18:09:17.296Z,14.90
2023-05-15T18:11:44.422Z,14.90
2023-05-15T18:14:11.574Z,14.90
2023-05-15T18:16:39.077Z,14.80
2023-05-15T18:19:06.665Z,14.80
2023-05-15T18:21:36.223Z,14.70
2023-05-15T18:24:04.786Z,14.70
2023-05-15T18:26:31.944Z,14.70
2023-05-15T18:28:59.058Z,14.70
2023-05-15T18:31:26.287Z,14.60
2023-05-15T18:33:54.224Z,14.50
2023-05-15T18:36:21.306Z,14.50
2023-05-15T18:38:48.685Z,14.40
2023-05-15T18:41:15.693Z,14.40
2023-05-15T18:43:42.736Z,14.30
2023-05-15T18:46:09.747Z,14.30
2023-05-15T18:48:36.854Z,14.30
2023-05-15T18:51:04.072Z,14.20
2023-05-15T18:53:31.705Z,14.20
2023-05-15T18:55:59.147Z,14.10
2023-05-15T18:58:26.236Z,14.10
2023-05-15T19:00:53.386Z,14.10
2023-05-15T19:03:21.319Z,14.00
2023-05-15T19:05:48.382Z,13.90
2023-05-15T19:08:15.454Z,13.80
2023-05-15T19:10:51.073Z,13.80
2023-05-15T19:13:19.797Z,13.70
2023-05-15T19:15:54.055Z,13.60
2023-05-15T19:18:21.174Z,13.60
2023-05-15T19:20:52.023Z,13.50
2023-05-15T19:23:21.068Z,13.50
2023-05-15T19:25:48.408Z,13.40
2023-05-15T19:28:15.602Z,13.30
2023-05-15T19:30:45.150Z,13.30
2023-05-15T19:33:13.138Z,13.20
2023-05-15T19:35:40.767Z,13.20
2023-05-15T19:38:08.071Z,13.20
2023-05-15T19:40:36.133Z,13.20
2023-05-15T19:43:03.288Z,13.10
2023-05-15T19:45:30.696Z,13.10
2023-05-15T19:47:59.152Z,13.10
2023-05-15T19:50:26.451Z,13.10
2023-05-15T19:52:53.707Z,13.10
2023-05-15T19:55:21.089Z,13.10
2023-05-15T19:57:48.114Z,13.10
2023-05-15T20:00:15.456Z,13.00
2023-05-15T20:02:42.659Z,12.90
2023-05-15T20:05:10.063Z,12.80
2023-05-15T20:07:38.356Z,12.80
2023-05-15T20:10:06.020Z,12.80
2023-05-15T20:12:33.043Z,12.70
2023-05-15T20:15:00.181Z,12.70
2023-05-15T20:17:27.350Z,12.60
2023-05-15T20:19:54.425Z,12.60
2023-05-15T20:22:21.461Z,12.50
2023-05-15T20:24:49.652Z,12.40
2023-05-15T20:27:16.750Z,12.30
2023-05-15T20:29:43.763Z,12.30
2023-05-15T20:32:11.215Z,12.30
2023-05-15T20:34:38.686Z,12.20
2023-05-15T20:37:06.777Z,12.20
2023-05-15T20:39:33.873Z,12.20
2023-05-15T20:42:01.148Z,12.20
2023-05-15T20:44:28.758Z,12.10
2023-05-15T20:46:56.232Z,12.00
2023-05-15T20:49:23.573Z,12.00
2023-05-15T20:51:50.877Z,12.00
2023-05-15T20:54:18.022Z,12.00
2023-05-15T20:56:45.127Z,11.90
2023-05-15T20:59:12.201Z,11.90
2023-05-15T21:01:41.030Z,11.90
2023-05-15T21:04:08.268Z,11.90
2023-05-15T21:06:36.098Z,11.80
2023-05-15T21:09:03.198Z,11.80
2023-05-15T21:11:30.295Z,11.80
2023-05-15T21:13:57.559Z,11.70
2023-05-15T21:16:24.954Z,11.70
2023-05-15T21:18:52.835Z,11.70
2023-05-15T21:21:20.455Z,11.60
2023-05-15T21:23:47.528Z,11.60
2023-05-15T21:26:15.247Z,11.50
2023-05-15T21:28:42.315Z,11.50
2023-05-15T21:31:10.461Z,11.50
2023-05-15T21:33:38.166Z,11.50
2023-05-15T21:36:05.675Z,11.40
2023-05-15T21:38:33.111Z,11.40
2023-05-15T21:41:01.442Z,11.40
2023-05-15T21:43:28.529Z,11.40
2023-05-15T21:45:56.376Z,11.30
2023-05-15T21:48:23.686Z,11.30
2023-05-15T21:50:50.967Z,11.30
2023-05-15T21:53:17.996Z,11.30
2023-05-15T21:55:45.071Z,11.30
2023-05-15T21:58:12.127Z,11.30
2023-05-15T22:00:40.477Z,11.20
2023-05-15T22:03:08.108Z,11.20
2023-05-15T22:05:35.271Z,11.20
2023-05-15T22:08:02.365Z,11.20
2023-05-15T22:10:29.464Z,11.20
2023-05-15T22:12:59.190Z,11.20
2023-05-15T22:15:26.293Z,11.10
2023-05-15T22:17:54.219Z,11.10
2023-05-15T22:20:21.513Z,11.10
2023-05-15T22:22:48.668Z,11.10
2023-05-15T22:25:15.747Z,11.00
2023-05-15T22:27:42.833Z,11.00
2023-05-15T22:30:10.187Z,11.00
2023-05-15T22:32:37.385Z,10.90
2023-05-15T22:35:05.622Z,10.90
2023-05-15T22:37:32.998Z,10.90
2023-05-15T22:40:00.227Z,10.90
2023-05-15T22:42:30.106Z,10.90
2023-05-15T22:44:57.975Z,10.90
2023-05-15T22:47:26.685Z,10.80
2023-05-15T22:49:54.185Z,10.80
2023-05-15T22:52:21.245Z,10.80
2023-05-15T22:55:16.218Z,10.80
2023-05-15T22:57:44.358Z,10.80
2023-05-15T23:00:12.258Z,10.80
2023-05-15T23:02:42.650Z,10.70
2023-05-15T23:05:11.615Z,10.70
2023-05-15T23:07:41.762Z,10.70
2023-05-15T23:10:09.292Z,10.70
2023-05-15T23:12:36.305Z,10.70
2023-05-15T23:15:03.666Z,10.70
2023-05-15T23:17:30.725Z,10.60
2023-05-15T23:19:57.812Z,10.60
2023-05-15T23:22:25.120Z,10.60
2023-05-15T23:24:52.187Z,10.60
2023-05-15T23:27:19.286Z,10.60
2023-05-15T23:29:46.590Z,10.60
2023-05-15T23:32:13.737Z,10.50
2023-05-15T23:34:40.809Z,10.50
2023-05-15T23:37:07.845Z,10.50
2023-05-15T23:39:36.243Z,10.50
2023-05-15T23:42:03.493Z,10.50
2023-05-15T23:44:30.689Z,10.50
2023-05-15T23:46:57.791Z,10.40
2023-05-15T23:49:24.882Z,10.40
2023-05-15T23:51:51.922Z,10.40
2023-05-15T23:54:18.967Z,10.40
2023-05-15T23:56:46.034Z,10.30
2023-05-15T23:59:14.081Z,10.30
